sensor_id;sensor_type;location;lat;lon;timestamp;pressure;altitude;pressure_sealevel;temperature;humidity
32747;BME280;19118;50.860;13.662;2023-06-14T00:03:33;96792.47;;;7.84;100.00
32747;BME280;19118;50.860;13.662;2023-06-14T00:08:33;96776.41;;;7.79;100.00
32747;BME280;19118;50.860;13.662;2023-06-14T00:13:33;96789.31;;;7.74;100.00
32747;BME280;19118;50.860;13.662;2023-06-14T00:18:34;96782.81;;;7.70;100.00
32747;BME280;19118;50.860;13.662;2023-06-14T00:23:34;96782.72;;;7.64;100.00
32747;BME280;19118;50.860;13.662;2023-06-14T00:28:34;96774.84;;;7.49;100.00
32747;BME280;19118;50.860;13.662;2023-06-14T00:33:35;96779.47;;;7.47;100.00
32747;BME280;19118;50.860;13.662;2023-06-14T00:38:35;96778.59;;;7.40;100.00
32747;BME280;19118;50.860;13.662;2023-06-14T00:43:35;96772.50;;;7.24;100.00
32747;BME280;19118;50.860;13.662;2023-06-14T00:48:37;96766.41;;;7.24;100.00
32747;BME280;19118;50.860;13.662;2023-06-14T00:53:37;96767.97;;;7.18;100.00
32747;BME280;19118;50.860;13.662;2023-06-14T00:58:40;96774.41;;;7.16;100.00
32747;BME280;19118;50.860;13.662;2023-06-14T01:03:40;96772.31;;;7.11;100.00
32747;BME280;19118;50.860;13.662;2023-06-14T01:08:50;96771.13;;;6.99;100.00
32747;BME280;19118;50.860;13.662;2023-06-14T01:13:53;96774.56;;;6.99;100.00
32747;BME280;19118;50.860;13.662;2023-06-14T01:18:56;96772.50;;;6.95;100.00
32747;BME280;19118;50.860;13.662;2023-06-14T01:23:58;96779.66;;;6.86;100.00
32747;BME280;19118;50.860;13.662;2023-06-14T01:29:00;96787.09;;;6.83;100.00
32747;BME280;19118;50.860;13.662;2023-06-14T01:34:01;96783.50;;;6.61;100.00
32747;BME280;19118;50.860;13.662;2023-06-14T01:39:01;96784.16;;;6.40;100.00
32747;BME280;19118;50.860;13.662;2023-06-14T01:44:03;96778.72;;;6.41;100.00
32747;BME280;19118;50.860;13.662;2023-06-14T01:49:06;96771.44;;;6.29;100.00
32747;BME280;19118;50.860;13.662;2023-06-14T01:54:07;96765.50;;;6.35;100.00
32747;BME280;19118;50.860;13.662;2023-06-14T01:59:07;96754.00;;;6.36;100.00
32747;BME280;19118;50.860;13.662;2023-06-14T02:04:08;96752.38;;;6.35;100.00
32747;BME280;19118;50.860;13.662;2023-06-14T02:09:08;96754.53;;;6.31;100.00
32747;BME280;19118;50.860;13.662;2023-06-14T02:14:09;96752.50;;;6.19;100.00
32747;BME280;19118;50.860;13.662;2023-06-14T02:19:11;96762.06;;;6.11;100.00
32747;BME280;19118;50.860;13.662;2023-06-14T02:24:12;96768.16;;;6.12;100.00
32747;BME280;19118;50.860;13.662;2023-06-14T02:29:13;96773.03;;;6.15;100.00
32747;BME280;19118;50.860;13.662;2023-06-14T02:34:15;96766.66;;;6.09;100.00
32747;BME280;19118;50.860;13.662;2023-06-14T02:39:18;96766.03;;;6.07;100.00
32747;BME280;19118;50.860;13.662;2023-06-14T02:44:24;96763.53;;;5.91;100.00
32747;BME280;19118;50.860;13.662;2023-06-14T02:49:26;96767.78;;;5.84;100.00
32747;BME280;19118;50.860;13.662;2023-06-14T02:54:28;96759.09;;;5.92;100.00
32747;BME280;19118;50.860;13.662;2023-06-14T02:59:29;96774.66;;;5.93;100.00
32747;BME280;19118;50.860;13.662;2023-06-14T03:04:30;96768.94;;;5.90;100.00
32747;BME280;19118;50.860;13.662;2023-06-14T03:09:36;96777.28;;;5.93;100.00
32747;BME280;19118;50.860;13.662;2023-06-14T03:14:41;96784.31;;;6.01;100.00
32747;BME280;19118;50.860;13.662;2023-06-14T03:19:43;96781.38;;;6.19;100.00
32747;BME280;19118;50.860;13.662;2023-06-14T03:24:44;96785.00;;;6.18;100.00
32747;BME280;19118;50.860;13.662;2023-06-14T03:29:47;96792.59;;;6.12;100.00
32747;BME280;19118;50.860;13.662;2023-06-14T03:34:48;96798.31;;;6.16;100.00
32747;BME280;19118;50.860;13.662;2023-06-14T03:39:54;96794.00;;;6.23;100.00
32747;BME280;19118;50.860;13.662;2023-06-14T03:44:57;96807.34;;;6.36;100.00
32747;BME280;19118;50.860;13.662;2023-06-14T03:49:58;96814.47;;;6.51;100.00
32747;BME280;19118;50.860;13.662;2023-06-14T03:54:58;96815.66;;;6.63;100.00
32747;BME280;19118;50.860;13.662;2023-06-14T04:00:01;96819.00;;;6.80;100.00
32747;BME280;19118;50.860;13.662;2023-06-14T04:05:14;96824.81;;;7.05;100.00
32747;BME280;19118;50.860;13.662;2023-06-14T04:10:21;96816.31;;;8.55;100.00
32747;BME280;19118;50.860;13.662;2023-06-14T04:15:22;96822.91;;;10.92;100.00
32747;BME280;19118;50.860;13.662;2023-06-14T04:20:23;96868.16;;;12.46;100.00
32747;BME280;19118;50.860;13.662;2023-06-14T04:25:26;96908.00;;;13.34;100.00
32747;BME280;19118;50.860;13.662;2023-06-14T04:30:29;96914.75;;;12.22;100.00
32747;BME280;19118;50.860;13.662;2023-06-14T04:35:32;96915.31;;;11.13;100.00
32747;BME280;19118;50.860;13.662;2023-06-14T04:40:33;96911.75;;;10.53;100.00
32747;BME280;19118;50.860;13.662;2023-06-14T04:45:34;96915.72;;;10.29;100.00
32747;BME280;19118;50.860;13.662;2023-06-14T04:50:37;96909.25;;;10.38;100.00
32747;BME280;19118;50.860;13.662;2023-06-14T04:55:38;96914.09;;;12.33;100.00
32747;BME280;19118;50.860;13.662;2023-06-14T05:00:39;96934.78;;;13.57;100.00
32747;BME280;19118;50.860;13.662;2023-06-14T05:05:42;96949.38;;;14.53;98.42
32747;BME280;19118;50.860;13.662;2023-06-14T05:10:42;96950.84;;;14.97;90.38
32747;BME280;19118;50.860;13.662;2023-06-14T05:15:43;96957.66;;;15.35;89.57
32747;BME280;19118;50.860;13.662;2023-06-14T05:20:43;96969.44;;;14.85;88.74
32747;BME280;19118;50.860;13.662;2023-06-14T05:25:44;96965.88;;;14.37;92.58
32747;BME280;19118;50.860;13.662;2023-06-14T05:30:45;96966.78;;;14.85;95.53
32747;BME280;19118;50.860;13.662;2023-06-14T05:35:45;96972.22;;;14.91;94.19
32747;BME280;19118;50.860;13.662;2023-06-14T05:40:47;96967.09;;;15.07;90.69
32747;BME280;19118;50.860;13.662;2023-06-14T05:45:47;96976.94;;;15.07;92.32
32747;BME280;19118;50.860;13.662;2023-06-14T05:50:47;96985.50;;;15.51;89.87
32747;BME280;19118;50.860;13.662;2023-06-14T05:55:49;96980.50;;;15.42;89.98
32747;BME280;19118;50.860;13.662;2023-06-14T06:00:50;96975.50;;;15.34;89.50
32747;BME280;19118;50.860;13.662;2023-06-14T06:05:51;96984.16;;;15.18;89.85
32747;BME280;19118;50.860;13.662;2023-06-14T06:10:51;96983.13;;;15.19;87.77
32747;BME280;19118;50.860;13.662;2023-06-14T06:15:51;96992.25;;;15.23;88.79
32747;BME280;19118;50.860;13.662;2023-06-14T06:20:52;97002.97;;;13.95;94.55
32747;BME280;19118;50.860;13.662;2023-06-14T06:25:52;97003.72;;;14.20;97.57
32747;BME280;19118;50.860;13.662;2023-06-14T06:30:53;97006.34;;;14.02;97.64
32747;BME280;19118;50.860;13.662;2023-06-14T06:35:53;97009.34;;;14.31;97.08
32747;BME280;19118;50.860;13.662;2023-06-14T06:40:54;97009.59;;;14.47;97.95
32747;BME280;19118;50.860;13.662;2023-06-14T06:45:55;97017.72;;;14.89;96.74
32747;BME280;19118;50.860;13.662;2023-06-14T06:50:55;97017.34;;;14.85;97.26
32747;BME280;19118;50.860;13.662;2023-06-14T06:55:55;97028.06;;;14.42;99.50
32747;BME280;19118;50.860;13.662;2023-06-14T07:00:55;97025.59;;;14.22;97.58
32747;BME280;19118;50.860;13.662;2023-06-14T07:05:56;97035.88;;;14.37;98.86
32747;BME280;19118;50.860;13.662;2023-06-14T07:10:56;97034.00;;;14.63;95.29
32747;BME280;19118;50.860;13.662;2023-06-14T07:15:58;97038.81;;;15.21;94.83
32747;BME280;19118;50.860;13.662;2023-06-14T07:21:01;97030.44;;;14.69;94.07
32747;BME280;19118;50.860;13.662;2023-06-14T07:26:02;97026.50;;;15.08;93.70
32747;BME280;19118;50.860;13.662;2023-06-14T07:31:02;97034.03;;;15.11;93.88
32747;BME280;19118;50.860;13.662;2023-06-14T07:36:03;97026.31;;;15.21;90.05
32747;BME280;19118;50.860;13.662;2023-06-14T07:41:03;97035.22;;;15.57;85.88
32747;BME280;19118;50.860;13.662;2023-06-14T07:46:04;97043.81;;;15.59;81.72
32747;BME280;19118;50.860;13.662;2023-06-14T07:51:04;97053.94;;;15.38;80.85
32747;BME280;19118;50.860;13.662;2023-06-14T07:56:05;97052.69;;;15.71;80.61
32747;BME280;19118;50.860;13.662;2023-06-14T08:01:05;97055.28;;;16.01;78.78
32747;BME280;19118;50.860;13.662;2023-06-14T08:06:08;97065.44;;;15.81;77.36
32747;BME280;19118;50.860;13.662;2023-06-14T08:11:08;97058.06;;;16.18;73.41
32747;BME280;19118;50.860;13.662;2023-06-14T08:16:08;97062.13;;;15.97;75.16
32747;BME280;19118;50.860;13.662;2023-06-14T08:21:09;97058.28;;;16.05;74.36
32747;BME280;19118;50.860;13.662;2023-06-14T08:26:10;97064.34;;;16.47;74.23
32747;BME280;19118;50.860;13.662;2023-06-14T08:31:10;97057.16;;;16.36;74.11
32747;BME280;19118;50.860;13.662;2023-06-14T08:36:11;97054.94;;;16.56;73.76
32747;BME280;19118;50.860;13.662;2023-06-14T08:41:22;97059.75;;;17.06;71.12
32747;BME280;19118;50.860;13.662;2023-06-14T08:46:26;97060.13;;;18.00;69.06
32747;BME280;19118;50.860;13.662;2023-06-14T08:51:30;97059.00;;;18.29;66.91
32747;BME280;19118;50.860;13.662;2023-06-14T08:56:37;97059.28;;;18.88;65.30
32747;BME280;19118;50.860;13.662;2023-06-14T09:01:38;97058.50;;;17.82;64.75
32747;BME280;19118;50.860;13.662;2023-06-14T09:06:39;97060.84;;;17.50;66.65
32747;BME280;19118;50.860;13.662;2023-06-14T09:11:41;97066.78;;;18.14;64.80
32747;BME280;19118;50.860;13.662;2023-06-14T09:16:42;97061.72;;;18.34;62.44
32747;BME280;19118;50.860;13.662;2023-06-14T09:21:47;97069.19;;;18.32;59.96
32747;BME280;19118;50.860;13.662;2023-06-14T09:26:48;97069.59;;;18.97;60.78
32747;BME280;19118;50.860;13.662;2023-06-14T09:31:50;97066.25;;;19.55;57.73
32747;BME280;19118;50.860;13.662;2023-06-14T09:36:51;97069.97;;;19.27;57.75
32747;BME280;19118;50.860;13.662;2023-06-14T09:41:51;97064.47;;;19.17;58.36
32747;BME280;19118;50.860;13.662;2023-06-14T09:46:53;97052.06;;;18.89;60.12
32747;BME280;19118;50.860;13.662;2023-06-14T09:51:55;97053.38;;;18.86;60.42
32747;BME280;19118;50.860;13.662;2023-06-14T09:56:57;97058.34;;;18.22;59.16
32747;BME280;19118;50.860;13.662;2023-06-14T10:01:59;97048.09;;;18.53;57.72
32747;BME280;19118;50.860;13.662;2023-06-14T10:07:03;97048.44;;;19.22;58.63
32747;BME280;19118;50.860;13.662;2023-06-14T10:12:05;97048.94;;;19.68;56.01
32747;BME280;19118;50.860;13.662;2023-06-14T10:17:10;97045.66;;;19.12;54.02
32747;BME280;19118;50.860;13.662;2023-06-14T10:22:21;97054.63;;;19.01;56.62
32747;BME280;19118;50.860;13.662;2023-06-14T10:27:25;97047.28;;;19.62;54.64
32747;BME280;19118;50.860;13.662;2023-06-14T10:32:25;97052.59;;;19.57;54.07
32747;BME280;19118;50.860;13.662;2023-06-14T10:37:28;97051.34;;;20.33;51.89
32747;BME280;19118;50.860;13.662;2023-06-14T10:42:32;97049.84;;;20.43;53.86
32747;BME280;19118;50.860;13.662;2023-06-14T10:47:34;97053.13;;;20.18;55.13
32747;BME280;19118;50.860;13.662;2023-06-14T10:52:41;97055.91;;;20.28;56.97
32747;BME280;19118;50.860;13.662;2023-06-14T11:02:56;97056.28;;;20.84;56.24
32747;BME280;19118;50.860;13.662;2023-06-14T11:08:27;97052.53;;;20.43;55.43
32747;BME280;19118;50.860;13.662;2023-06-14T11:13:33;97056.72;;;19.42;57.99
32747;BME280;19118;50.860;13.662;2023-06-14T11:18:33;97044.16;;;20.39;57.61
32747;BME280;19118;50.860;13.662;2023-06-14T11:23:35;97052.31;;;21.02;54.73
32747;BME280;19118;50.860;13.662;2023-06-14T11:28:38;97059.19;;;19.71;59.23
32747;BME280;19118;50.860;13.662;2023-06-14T11:33:39;97042.97;;;20.62;56.37
32747;BME280;19118;50.860;13.662;2023-06-14T11:38:39;97044.34;;;21.27;55.16
32747;BME280;19118;50.860;13.662;2023-06-14T11:43:40;97047.78;;;20.55;56.48
32747;BME280;19118;50.860;13.662;2023-06-14T11:48:43;97043.59;;;20.79;55.00
32747;BME280;19118;50.860;13.662;2023-06-14T11:53:45;97051.06;;;20.67;55.80
32747;BME280;19118;50.860;13.662;2023-06-14T11:58:46;97047.44;;;20.14;58.87
32747;BME280;19118;50.860;13.662;2023-06-14T12:03:48;97047.59;;;19.43;59.91
32747;BME280;19118;50.860;13.662;2023-06-14T12:08:49;97045.34;;;18.48;64.90
32747;BME280;19118;50.860;13.662;2023-06-14T12:13:50;97054.91;;;18.44;68.10
32747;BME280;19118;50.860;13.662;2023-06-14T12:18:53;97060.25;;;18.44;69.32
32747;BME280;19118;50.860;13.662;2023-06-14T12:23:53;97057.97;;;19.57;65.51
32747;BME280;19118;50.860;13.662;2023-06-14T12:28:54;97049.84;;;20.95;61.35
32747;BME280;19118;50.860;13.662;2023-06-14T12:33:54;97039.28;;;21.46;57.60
32747;BME280;19118;50.860;13.662;2023-06-14T12:38:55;97036.66;;;22.37;54.89
32747;BME280;19118;50.860;13.662;2023-06-14T12:43:55;97035.16;;;21.23;55.19
32747;BME280;19118;50.860;13.662;2023-06-14T12:48:58;97045.59;;;19.56;61.47
32747;BME280;19118;50.860;13.662;2023-06-14T12:53:58;97044.41;;;20.00;61.64
32747;BME280;19118;50.860;13.662;2023-06-14T12:58:58;97043.94;;;20.46;62.19
32747;BME280;19118;50.860;13.662;2023-06-14T13:03:59;97023.78;;;22.09;58.00
32747;BME280;19118;50.860;13.662;2023-06-14T13:09:00;97029.63;;;21.55;58.18
32747;BME280;19118;50.860;13.662;2023-06-14T13:14:01;97033.25;;;21.13;59.31
32747;BME280;19118;50.860;13.662;2023-06-14T13:19:01;97029.59;;;21.45;58.72
32747;BME280;19118;50.860;13.662;2023-06-14T13:24:01;97037.03;;;21.17;57.34
32747;BME280;19118;50.860;13.662;2023-06-14T13:29:01;97020.69;;;20.61;55.52
32747;BME280;19118;50.860;13.662;2023-06-14T13:34:02;97018.44;;;19.79;58.10
32747;BME280;19118;50.860;13.662;2023-06-14T13:39:02;97016.72;;;20.32;58.40
32747;BME280;19118;50.860;13.662;2023-06-14T13:44:03;97021.47;;;19.88;60.28
32747;BME280;19118;50.860;13.662;2023-06-14T13:49:06;97020.97;;;19.10;63.70
32747;BME280;19118;50.860;13.662;2023-06-14T13:54:06;97025.59;;;19.95;63.88
32747;BME280;19118;50.860;13.662;2023-06-14T13:59:07;97026.38;;;19.64;62.50
32747;BME280;19118;50.860;13.662;2023-06-14T14:04:07;97019.09;;;19.91;61.38
32747;BME280;19118;50.860;13.662;2023-06-14T14:09:08;97023.16;;;19.62;61.30
32747;BME280;19118;50.860;13.662;2023-06-14T14:14:09;97019.94;;;19.97;61.18
32747;BME280;19118;50.860;13.662;2023-06-14T14:19:10;97009.31;;;21.07;58.50
32747;BME280;19118;50.860;13.662;2023-06-14T14:24:11;97005.97;;;21.83;58.82
32747;BME280;19118;50.860;13.662;2023-06-14T14:29:11;97009.50;;;20.85;56.12
32747;BME280;19118;50.860;13.662;2023-06-14T14:34:12;97023.28;;;19.50;62.05
32747;BME280;19118;50.860;13.662;2023-06-14T14:39:12;97021.34;;;19.45;63.80
32747;BME280;19118;50.860;13.662;2023-06-14T14:44:12;97013.06;;;18.98;64.82
32747;BME280;19118;50.860;13.662;2023-06-14T14:49:13;97010.41;;;19.25;62.67
32747;BME280;19118;50.860;13.662;2023-06-14T14:54:13;97008.84;;;19.56;61.15
32747;BME280;19118;50.860;13.662;2023-06-14T14:59:13;97003.91;;;20.44;58.09
32747;BME280;19118;50.860;13.662;2023-06-14T15:04:14;96990.63;;;21.53;54.06
32747;BME280;19118;50.860;13.662;2023-06-14T15:09:15;96994.53;;;21.09;53.89
32747;BME280;19118;50.860;13.662;2023-06-14T15:14:15;96991.66;;;21.51;52.15
32747;BME280;19118;50.860;13.662;2023-06-14T15:19:18;97000.59;;;20.37;56.65
32747;BME280;19118;50.860;13.662;2023-06-14T15:24:18;97005.28;;;20.10;57.05
32747;BME280;19118;50.860;13.662;2023-06-14T15:29:18;97001.09;;;19.87;57.12
32747;BME280;19118;50.860;13.662;2023-06-14T15:34:19;97003.28;;;20.37;58.08
32747;BME280;19118;50.860;13.662;2023-06-14T15:39:19;97001.47;;;21.05;56.12
32747;BME280;19118;50.860;13.662;2023-06-14T15:44:19;96997.19;;;21.04;55.79
32747;BME280;19118;50.860;13.662;2023-06-14T15:49:20;97013.34;;;20.10;56.81
32747;BME280;19118;50.860;13.662;2023-06-14T15:54:20;97010.72;;;19.56;58.23
32747;BME280;19118;50.860;13.662;2023-06-14T15:59:21;97017.09;;;19.01;59.60
32747;BME280;19118;50.860;13.662;2023-06-14T16:04:21;97007.06;;;18.91;60.20
32747;BME280;19118;50.860;13.662;2023-06-14T16:09:21;97010.69;;;18.80;63.44
32747;BME280;19118;50.860;13.662;2023-06-14T16:14:22;97005.31;;;19.51;64.28
32747;BME280;19118;50.860;13.662;2023-06-14T16:19:22;96998.59;;;23.29;54.51
32747;BME280;19118;50.860;13.662;2023-06-14T16:24:22;96993.84;;;21.85;51.42
32747;BME280;19118;50.860;13.662;2023-06-14T16:29:23;97000.00;;;20.62;51.61
32747;BME280;19118;50.860;13.662;2023-06-14T16:34:23;97007.44;;;19.48;54.56
32747;BME280;19118;50.860;13.662;2023-06-14T16:39:23;97007.56;;;18.88;56.15
32747;BME280;19118;50.860;13.662;2023-06-14T16:44:24;97020.31;;;18.59;58.75
32747;BME280;19118;50.860;13.662;2023-06-14T16:49:25;97008.16;;;19.66;56.24
32747;BME280;19118;50.860;13.662;2023-06-14T16:54:25;97005.06;;;25.12;44.79
32747;BME280;19118;50.860;13.662;2023-06-14T16:59:25;96996.22;;;26.01;42.11
32747;BME280;19118;50.860;13.662;2023-06-14T17:04:26;96998.06;;;26.79;40.92
32747;BME280;19118;50.860;13.662;2023-06-14T17:09:26;96998.06;;;26.05;42.09
32747;BME280;19118;50.860;13.662;2023-06-14T17:14:27;97003.03;;;25.98;40.64
32747;BME280;19118;50.860;13.662;2023-06-14T17:19:27;97010.69;;;26.10;40.17
32747;BME280;19118;50.860;13.662;2023-06-14T17:24:27;97014.22;;;26.43;38.82
32747;BME280;19118;50.860;13.662;2023-06-14T17:29:28;97026.03;;;23.46;43.20
32747;BME280;19118;50.860;13.662;2023-06-14T17:34:28;97025.69;;;23.97;44.11
32747;BME280;19118;50.860;13.662;2023-06-14T17:39:28;97023.09;;;24.50;42.27
32747;BME280;19118;50.860;13.662;2023-06-14T17:44:29;97022.06;;;24.94;42.39
32747;BME280;19118;50.860;13.662;2023-06-14T17:49:29;97024.66;;;23.49;45.13
32747;BME280;19118;50.860;13.662;2023-06-14T17:54:29;97023.44;;;24.67;43.62
32747;BME280;19118;50.860;13.662;2023-06-14T17:59:30;97023.22;;;25.73;41.53
32747;BME280;19118;50.860;13.662;2023-06-14T18:04:30;97021.50;;;27.03;41.14
32747;BME280;19118;50.860;13.662;2023-06-14T18:09:31;97031.94;;;26.82;41.27
32747;BME280;19118;50.860;13.662;2023-06-14T18:14:31;97043.22;;;23.66;44.57
32747;BME280;19118;50.860;13.662;2023-06-14T18:19:31;97046.88;;;21.69;51.09
32747;BME280;19118;50.860;13.662;2023-06-14T18:24:32;97050.91;;;20.10;55.70
32747;BME280;19118;50.860;13.662;2023-06-14T18:29:32;97059.00;;;19.07;58.19
32747;BME280;19118;50.860;13.662;2023-06-14T18:34:33;97055.56;;;18.34;61.98
32747;BME280;19118;50.860;13.662;2023-06-14T18:39:34;97059.88;;;17.85;68.43
32747;BME280;19118;50.860;13.662;2023-06-14T18:44:34;97058.66;;;17.18;73.60
32747;BME280;19118;50.860;13.662;2023-06-14T18:49:34;97057.50;;;16.74;78.50
32747;BME280;19118;50.860;13.662;2023-06-14T18:54:35;97059.00;;;16.12;83.58
32747;BME280;19118;50.860;13.662;2023-06-14T18:59:35;97060.88;;;15.39;91.13
32747;BME280;19118;50.860;13.662;2023-06-14T19:04:36;97063.50;;;14.98;93.62
32747;BME280;19118;50.860;13.662;2023-06-14T19:09:36;97066.00;;;14.56;93.68
32747;BME280;19118;50.860;13.662;2023-06-14T19:14:36;97064.31;;;14.18;97.25
32747;BME280;19118;50.860;13.662;2023-06-14T19:19:37;97067.28;;;13.79;100.00
32747;BME280;19118;50.860;13.662;2023-06-14T19:24:37;97065.25;;;13.49;100.00
32747;BME280;19118;50.860;13.662;2023-06-14T19:29:37;97066.59;;;13.27;100.00
32747;BME280;19118;50.860;13.662;2023-06-14T19:34:38;97066.72;;;12.94;100.00
32747;BME280;19118;50.860;13.662;2023-06-14T19:39:44;97080.28;;;12.66;100.00
32747;BME280;19118;50.860;13.662;2023-06-14T19:44:45;97066.09;;;12.27;100.00
32747;BME280;19118;50.860;13.662;2023-06-14T19:49:46;97071.81;;;12.17;100.00
32747;BME280;19118;50.860;13.662;2023-06-14T19:54:46;97062.47;;;12.02;100.00
32747;BME280;19118;50.860;13.662;2023-06-14T19:59:46;97072.22;;;11.81;100.00
32747;BME280;19118;50.860;13.662;2023-06-14T20:04:47;97071.41;;;11.81;100.00
32747;BME280;19118;50.860;13.662;2023-06-14T20:09:47;97075.88;;;11.67;100.00
32747;BME280;19118;50.860;13.662;2023-06-14T20:14:48;97070.94;;;11.51;100.00
32747;BME280;19118;50.860;13.662;2023-06-14T20:19:49;97080.28;;;11.33;100.00
32747;BME280;19118;50.860;13.662;2023-06-14T20:24:50;97089.22;;;11.32;100.00
32747;BME280;19118;50.860;13.662;2023-06-14T20:29:50;97092.47;;;11.21;100.00
32747;BME280;19118;50.860;13.662;2023-06-14T20:34:52;97083.91;;;11.19;100.00
32747;BME280;19118;50.860;13.662;2023-06-14T20:39:54;97082.88;;;11.20;100.00
32747;BME280;19118;50.860;13.662;2023-06-14T20:45:03;97085.47;;;11.00;100.00
32747;BME280;19118;50.860;13.662;2023-06-14T20:50:07;97080.16;;;10.94;100.00
32747;BME280;19118;50.860;13.662;2023-06-14T20:55:08;97078.44;;;10.73;100.00
32747;BME280;19118;50.860;13.662;2023-06-14T21:00:09;97075.66;;;10.46;100.00
32747;BME280;19118;50.860;13.662;2023-06-14T21:05:12;97071.88;;;10.28;100.00
32747;BME280;19118;50.860;13.662;2023-06-14T21:10:15;97063.44;;;10.17;100.00
32747;BME280;19118;50.860;13.662;2023-06-14T21:15:15;97062.81;;;10.15;100.00
32747;BME280;19118;50.860;13.662;2023-06-14T21:20:16;97058.13;;;10.11;100.00
32747;BME280;19118;50.860;13.662;2023-06-14T21:25:16;97056.00;;;10.00;100.00
32747;BME280;19118;50.860;13.662;2023-06-14T21:30:16;97063.63;;;9.88;100.00
32747;BME280;19118;50.860;13.662;2023-06-14T21:35:17;97051.72;;;9.99;100.00
32747;BME280;19118;50.860;13.662;2023-06-14T21:40:19;97069.41;;;9.98;100.00
32747;BME280;19118;50.860;13.662;2023-06-14T21:45:19;97061.72;;;9.75;100.00
32747;BME280;19118;50.860;13.662;2023-06-14T21:50:20;97053.63;;;9.55;100.00
32747;BME280;19118;50.860;13.662;2023-06-14T21:55:20;97051.06;;;9.41;100.00
32747;BME280;19118;50.860;13.662;2023-06-14T22:00:23;97043.59;;;9.51;100.00
32747;BME280;19118;50.860;13.662;2023-06-14T22:05:24;97045.94;;;9.39;100.00
32747;BME280;19118;50.860;13.662;2023-06-14T22:10:25;97042.81;;;9.29;100.00
32747;BME280;19118;50.860;13.662;2023-06-14T22:15:26;97033.81;;;9.23;100.00
32747;BME280;19118;50.860;13.662;2023-06-14T22:20:27;97032.38;;;9.21;100.00
32747;BME280;19118;50.860;13.662;2023-06-14T22:25:29;97037.03;;;9.19;100.00
32747;BME280;19118;50.860;13.662;2023-06-14T22:30:30;97036.13;;;9.12;100.00
32747;BME280;19118;50.860;13.662;2023-06-14T22:35:30;97036.88;;;9.05;100.00
32747;BME280;19118;50.860;13.662;2023-06-14T22:40:30;97034.06;;;9.07;100.00
32747;BME280;19118;50.860;13.662;2023-06-14T22:45:31;97037.72;;;9.06;100.00
32747;BME280;19118;50.860;13.662;2023-06-14T22:50:32;97026.94;;;8.86;100.00
32747;BME280;19118;50.860;13.662;2023-06-14T22:55:32;97027.75;;;8.72;100.00
32747;BME280;19118;50.860;13.662;2023-06-14T23:00:33;97026.88;;;8.65;100.00
32747;BME280;19118;50.860;13.662;2023-06-14T23:05:33;97031.72;;;8.61;100.00
32747;BME280;19118;50.860;13.662;2023-06-14T23:10:34;97034.25;;;8.55;100.00
32747;BME280;19118;50.860;13.662;2023-06-14T23:15:37;97030.19;;;8.52;100.00
32747;BME280;19118;50.860;13.662;2023-06-14T23:20:37;97022.47;;;8.51;100.00
32747;BME280;19118;50.860;13.662;2023-06-14T23:25:37;97028.53;;;8.66;100.00
32747;BME280;19118;50.860;13.662;2023-06-14T23:30:37;97026.59;;;8.60;100.00
32747;BME280;19118;50.860;13.662;2023-06-14T23:35:38;97017.81;;;8.53;100.00
32747;BME280;19118;50.860;13.662;2023-06-14T23:40:40;97021.66;;;8.50;100.00
32747;BME280;19118;50.860;13.662;2023-06-14T23:45:40;97012.38;;;8.39;100.00
32747;BME280;19118;50.860;13.662;2023-06-14T23:50:41;97004.50;;;8.39;100.00
32747;BME280;19118;50.860;13.662;2023-06-14T23:55:41;97006.00;;;8.34;100.00
